Wootton, United Kingdom
Current Conditions -  °F | °C
As of 7:50 AM on Thursday 27 Nov 2014 (Local Time) from EGTC Reporting Station
Moderate Fog Moderate Fog  
Wind Chill: 46°   Ceiling: Unl
Heat Index: 46°   Visibility: 0.09mi
Dew Point: 46°   Wind: 3mph
Humidity: 100%   Direction: 280°W
Pressure: 29.59"   Gusts: NA
Location:  52.1°N, 0.53°W
Report Text: EGTC 270750Z 28003KT 0150 FG VV/// 08/08 Q1002
Loading
Personal Weather Stations






























Interactive Weather Map New forecast layout! Learn more

10-Day Weather Forecast

Advertisements
Track Severe Weather on mobile